createdAt,value
2019-04-06T08:13:17.405Z,9.47
2019-04-06T08:18:21.707Z,8.93
2019-04-06T08:23:25.849Z,8.17
2019-04-06T08:28:30.080Z,7.77
2019-04-06T08:33:34.072Z,6.30
2019-04-06T08:38:38.347Z,6.77
2019-04-06T08:43:42.533Z,6.47
2019-04-06T08:48:46.533Z,5.90
2019-04-06T08:53:50.737Z,6.10
2019-04-06T08:58:57.186Z,5.67
2019-04-06T09:04:01.307Z,6.07
2019-04-06T09:09:06.712Z,6.57
2019-04-06T09:14:11.271Z,6.87
2019-04-06T09:19:15.313Z,6.87
2019-04-06T09:24:19.339Z,6.87
2019-04-06T09:29:24.596Z,6.00
2019-04-06T09:34:30.980Z,5.37
2019-04-06T09:39:35.187Z,5.57
2019-04-06T09:44:39.276Z,5.20
2019-04-06T09:49:43.586Z,5.50
2019-04-06T09:54:47.672Z,6.33
2019-04-06T09:59:51.817Z,6.03
2019-04-06T10:04:55.912Z,5.60
2019-04-06T10:10:02.699Z,4.93
2019-04-06T10:15:07.033Z,6.20
2019-04-06T10:20:11.192Z,7.43
2019-04-06T10:25:15.468Z,7.63
2019-04-06T10:30:19.906Z,10.70
2019-04-06T10:35:24.170Z,13.03
2019-04-06T10:40:28.233Z,13.43
2019-04-06T10:45:32.411Z,15.23
2019-04-06T10:50:36.819Z,16.17
2019-04-06T10:55:40.926Z,15.90
2019-04-06T11:00:45.085Z,15.47
2019-04-06T11:05:49.131Z,16.53
2019-04-06T11:10:53.192Z,15.93
2019-04-06T11:15:57.205Z,16.30
2019-04-06T11:21:01.378Z,15.60
2019-04-06T11:26:05.652Z,14.57
2019-04-06T11:31:12.696Z,19.83
2019-04-06T11:36:16.691Z,24.47
2019-04-06T11:41:20.831Z,24.03
2019-04-06T11:46:24.905Z,29.03
2019-04-06T11:51:28.966Z,30.13
2019-04-06T11:56:33.924Z,34.67
2019-04-06T12:01:38.022Z,32.77
2019-04-06T12:06:42.013Z,39.50
2019-04-06T12:11:46.141Z,36.83
2019-04-06T12:16:50.152Z,41.30
2019-04-06T12:21:54.152Z,38.73
2019-04-06T12:26:58.623Z,38.53
2019-04-06T12:32:02.791Z,37.20
2019-04-06T12:37:06.835Z,40.50
2019-04-06T12:42:10.852Z,34.27
2019-04-06T12:47:15.037Z,36.70
2019-04-06T12:52:19.270Z,36.30
2019-04-06T12:57:23.351Z,35.90
2019-04-06T13:02:27.332Z,31.77
2019-04-06T13:07:32.630Z,32.93
2019-04-06T13:12:36.712Z,32.10
2019-04-06T13:17:40.773Z,29.90
2019-04-06T13:22:44.966Z,30.03
2019-04-06T13:27:49.347Z,28.53
2019-04-06T13:32:53.705Z,30.73
2019-04-06T13:37:57.746Z,30.70
2019-04-06T13:43:01.751Z,33.10
2019-04-06T13:48:06.086Z,34.87
2019-04-06T13:53:11.752Z,34.90
2019-04-06T13:58:15.852Z,34.73
2019-04-06T14:03:19.852Z,32.73
2019-04-06T14:08:24.030Z,27.80
2019-04-06T14:13:28.111Z,29.30
2019-04-06T14:18:32.182Z,29.73
2019-04-06T14:23:36.507Z,30.63
